sensor_id;sensor_type;location;lat;lon;timestamp;P1;durP1;ratioP1;P2;durP2;ratioP2
32760;SDS011;19126;47.472;7.850;2024-03-22T00:02:07;3.63;;;3.10;;
32760;SDS011;19126;47.472;7.850;2024-03-22T00:04:35;6.25;;;3.17;;
32760;SDS011;19126;47.472;7.850;2024-03-22T00:07:01;4.47;;;2.85;;
32760;SDS011;19126;47.472;7.850;2024-03-22T00:09:29;5.25;;;3.15;;
32760;SDS011;19126;47.472;7.850;2024-03-22T00:11:55;5.07;;;3.58;;
32760;SDS011;19126;47.472;7.850;2024-03-22T00:14:22;5.75;;;3.78;;
32760;SDS011;19126;47.472;7.850;2024-03-22T00:16:50;3.85;;;3.17;;
32760;SDS011;19126;47.472;7.850;2024-03-22T00:19:17;9.95;;;4.18;;
32760;SDS011;19126;47.472;7.850;2024-03-22T00:21:43;5.53;;;3.67;;
32760;SDS011;19126;47.472;7.850;2024-03-22T00:24:11;7.18;;;3.67;;
32760;SDS011;19126;47.472;7.850;2024-03-22T00:26:37;10.60;;;3.90;;
32760;SDS011;19126;47.472;7.850;2024-03-22T00:29:04;8.43;;;3.67;;
32760;SDS011;19126;47.472;7.850;2024-03-22T00:31:30;4.70;;;3.55;;
32760;SDS011;19126;47.472;7.850;2024-03-22T00:33:59;6.40;;;2.75;;
32760;SDS011;19126;47.472;7.850;2024-03-22T00:36:25;3.88;;;2.90;;
32760;SDS011;19126;47.472;7.850;2024-03-22T00:38:52;3.28;;;2.90;;
32760;SDS011;19126;47.472;7.850;2024-03-22T00:41:18;7.60;;;3.20;;
32760;SDS011;19126;47.472;7.850;2024-03-22T00:43:45;4.47;;;3.08;;
32760;SDS011;19126;47.472;7.850;2024-03-22T00:46:11;9.50;;;3.30;;
32760;SDS011;19126;47.472;7.850;2024-03-22T00:48:39;4.30;;;3.25;;
32760;SDS011;19126;47.472;7.850;2024-03-22T00:51:06;4.47;;;3.17;;
32760;SDS011;19126;47.472;7.850;2024-03-22T00:53:33;5.72;;;3.80;;
32760;SDS011;19126;47.472;7.850;2024-03-22T00:55:59;6.47;;;3.38;;
32760;SDS011;19126;47.472;7.850;2024-03-22T00:58:27;6.10;;;3.28;;
32760;SDS011;19126;47.472;7.850;2024-03-22T01:00:53;5.97;;;3.60;;
32760;SDS011;19126;47.472;7.850;2024-03-22T01:03:21;5.43;;;3.40;;
32760;SDS011;19126;47.472;7.850;2024-03-22T01:05:47;3.53;;;3.08;;
32760;SDS011;19126;47.472;7.850;2024-03-22T01:08:16;5.82;;;3.33;;
32760;SDS011;19126;47.472;7.850;2024-03-22T01:10:42;6.05;;;3.25;;
32760;SDS011;19126;47.472;7.850;2024-03-22T01:13:09;7.28;;;3.28;;
32760;SDS011;19126;47.472;7.850;2024-03-22T01:15:35;18.08;;;3.47;;
32760;SDS011;19126;47.472;7.850;2024-03-22T01:18:02;5.15;;;3.97;;
32760;SDS011;19126;47.472;7.850;2024-03-22T01:20:29;4.20;;;3.58;;
32760;SDS011;19126;47.472;7.850;2024-03-22T01:22:59;6.85;;;4.40;;
32760;SDS011;19126;47.472;7.850;2024-03-22T01:25:27;4.50;;;3.25;;
32760;SDS011;19126;47.472;7.850;2024-03-22T01:27:55;10.18;;;3.30;;
32760;SDS011;19126;47.472;7.850;2024-03-22T01:30:21;7.15;;;3.70;;
32760;SDS011;19126;47.472;7.850;2024-03-22T01:32:50;6.82;;;3.85;;
32760;SDS011;19126;47.472;7.850;2024-03-22T01:35:17;5.88;;;4.47;;
32760;SDS011;19126;47.472;7.850;2024-03-22T01:37:44;13.85;;;5.45;;
32760;SDS011;19126;47.472;7.850;2024-03-22T01:40:10;5.13;;;3.28;;
32760;SDS011;19126;47.472;7.850;2024-03-22T01:42:40;5.65;;;3.65;;
32760;SDS011;19126;47.472;7.850;2024-03-22T01:45:07;5.88;;;3.35;;
32760;SDS011;19126;47.472;7.850;2024-03-22T01:47:40;7.65;;;3.65;;
32760;SDS011;19126;47.472;7.850;2024-03-22T01:50:07;4.38;;;3.47;;
32760;SDS011;19126;47.472;7.850;2024-03-22T01:52:37;6.03;;;3.75;;
32760;SDS011;19126;47.472;7.850;2024-03-22T01:55:04;5.22;;;3.67;;
32760;SDS011;19126;47.472;7.850;2024-03-22T01:57:33;5.93;;;3.35;;
32760;SDS011;19126;47.472;7.850;2024-03-22T02:00:02;5.72;;;3.53;;
32760;SDS011;19126;47.472;7.850;2024-03-22T02:02:31;5.80;;;3.60;;
32760;SDS011;19126;47.472;7.850;2024-03-22T02:04:57;5.30;;;3.38;;
32760;SDS011;19126;47.472;7.850;2024-03-22T02:07:24;7.68;;;3.35;;
32760;SDS011;19126;47.472;7.850;2024-03-22T02:09:55;5.78;;;3.33;;
32760;SDS011;19126;47.472;7.850;2024-03-22T02:12:22;6.00;;;3.70;;
32760;SDS011;19126;47.472;7.850;2024-03-22T02:14:50;5.50;;;3.58;;
32760;SDS011;19126;47.472;7.850;2024-03-22T02:17:18;6.05;;;3.75;;
32760;SDS011;19126;47.472;7.850;2024-03-22T02:19:44;4.00;;;3.53;;
32760;SDS011;19126;47.472;7.850;2024-03-22T02:22:11;6.18;;;3.58;;
32760;SDS011;19126;47.472;7.850;2024-03-22T02:24:39;5.25;;;3.60;;
32760;SDS011;19126;47.472;7.850;2024-03-22T02:27:06;8.35;;;3.90;;
32760;SDS011;19126;47.472;7.850;2024-03-22T02:29:32;10.80;;;3.55;;
32760;SDS011;19126;47.472;7.850;2024-03-22T02:32:00;5.75;;;3.40;;
32760;SDS011;19126;47.472;7.850;2024-03-22T02:34:26;6.90;;;3.97;;
32760;SDS011;19126;47.472;7.850;2024-03-22T02:36:53;6.55;;;3.90;;
32760;SDS011;19126;47.472;7.850;2024-03-22T02:39:19;7.82;;;3.72;;
32760;SDS011;19126;47.472;7.850;2024-03-22T02:41:47;4.85;;;3.15;;
32760;SDS011;19126;47.472;7.850;2024-03-22T02:44:14;5.65;;;3.85;;
32760;SDS011;19126;47.472;7.850;2024-03-22T02:46:41;11.25;;;4.00;;
32760;SDS011;19126;47.472;7.850;2024-03-22T02:49:07;4.38;;;3.40;;
32760;SDS011;19126;47.472;7.850;2024-03-22T02:51:34;6.70;;;3.70;;
32760;SDS011;19126;47.472;7.850;2024-03-22T02:54:00;7.03;;;3.97;;
32760;SDS011;19126;47.472;7.850;2024-03-22T02:56:28;5.25;;;3.80;;
32760;SDS011;19126;47.472;7.850;2024-03-22T02:58:55;7.53;;;3.50;;
32760;SDS011;19126;47.472;7.850;2024-03-22T03:01:22;6.35;;;3.40;;
32760;SDS011;19126;47.472;7.850;2024-03-22T03:03:49;11.85;;;4.50;;
32760;SDS011;19126;47.472;7.850;2024-03-22T03:06:16;7.50;;;3.97;;
32760;SDS011;19126;47.472;7.850;2024-03-22T03:08:45;8.27;;;3.88;;
32760;SDS011;19126;47.472;7.850;2024-03-22T03:11:14;10.38;;;3.95;;
32760;SDS011;19126;47.472;7.850;2024-03-22T03:13:40;6.78;;;4.20;;
32760;SDS011;19126;47.472;7.850;2024-03-22T03:16:09;7.40;;;4.20;;
32760;SDS011;19126;47.472;7.850;2024-03-22T03:18:38;9.10;;;4.18;;
32760;SDS011;19126;47.472;7.850;2024-03-22T03:21:06;4.63;;;4.15;;
32760;SDS011;19126;47.472;7.850;2024-03-22T03:23:34;8.60;;;4.00;;
32760;SDS011;19126;47.472;7.850;2024-03-22T03:26:01;12.25;;;4.63;;
32760;SDS011;19126;47.472;7.850;2024-03-22T03:28:28;9.18;;;4.82;;
32760;SDS011;19126;47.472;7.850;2024-03-22T03:30:55;5.03;;;4.00;;
32760;SDS011;19126;47.472;7.850;2024-03-22T03:33:22;7.95;;;4.53;;
32760;SDS011;19126;47.472;7.850;2024-03-22T03:35:49;8.65;;;4.43;;
32760;SDS011;19126;47.472;7.850;2024-03-22T03:38:16;8.60;;;4.13;;
32760;SDS011;19126;47.472;7.850;2024-03-22T03:40:43;6.28;;;4.80;;
32760;SDS011;19126;47.472;7.850;2024-03-22T03:43:09;11.23;;;5.10;;
32760;SDS011;19126;47.472;7.850;2024-03-22T03:45:36;11.77;;;4.18;;
32760;SDS011;19126;47.472;7.850;2024-03-22T03:48:02;8.00;;;4.18;;
32760;SDS011;19126;47.472;7.850;2024-03-22T03:50:32;7.28;;;4.75;;
32760;SDS011;19126;47.472;7.850;2024-03-22T03:52:58;6.60;;;5.07;;
32760;SDS011;19126;47.472;7.850;2024-03-22T03:55:25;6.55;;;4.68;;
32760;SDS011;19126;47.472;7.850;2024-03-22T03:57:51;7.60;;;5.10;;
32760;SDS011;19126;47.472;7.850;2024-03-22T04:00:19;6.63;;;4.65;;
32760;SDS011;19126;47.472;7.850;2024-03-22T04:02:46;9.20;;;4.57;;
32760;SDS011;19126;47.472;7.850;2024-03-22T04:05:15;12.73;;;5.30;;
32760;SDS011;19126;47.472;7.850;2024-03-22T04:07:46;7.60;;;4.53;;
32760;SDS011;19126;47.472;7.850;2024-03-22T04:10:13;5.40;;;4.10;;
32760;SDS011;19126;47.472;7.850;2024-03-22T04:12:40;5.60;;;4.07;;
32760;SDS011;19126;47.472;7.850;2024-03-22T04:15:07;8.82;;;4.70;;
32760;SDS011;19126;47.472;7.850;2024-03-22T04:17:34;7.97;;;5.07;;
32760;SDS011;19126;47.472;7.850;2024-03-22T04:20:01;6.65;;;5.10;;
32760;SDS011;19126;47.472;7.850;2024-03-22T04:22:29;13.43;;;7.07;;
32760;SDS011;19126;47.472;7.850;2024-03-22T04:24:58;11.75;;;5.45;;
32760;SDS011;19126;47.472;7.850;2024-03-22T04:27:24;9.02;;;4.88;;
32760;SDS011;19126;47.472;7.850;2024-03-22T04:29:51;6.50;;;4.70;;
32760;SDS011;19126;47.472;7.850;2024-03-22T04:32:17;6.75;;;4.95;;
32760;SDS011;19126;47.472;7.850;2024-03-22T04:34:44;7.93;;;4.32;;
32760;SDS011;19126;47.472;7.850;2024-03-22T04:37:10;5.22;;;4.43;;
32760;SDS011;19126;47.472;7.850;2024-03-22T04:39:38;10.10;;;5.20;;
32760;SDS011;19126;47.472;7.850;2024-03-22T04:42:08;6.93;;;4.68;;
32760;SDS011;19126;47.472;7.850;2024-03-22T04:44:35;9.02;;;5.40;;
32760;SDS011;19126;47.472;7.850;2024-03-22T04:47:01;5.80;;;4.78;;
32760;SDS011;19126;47.472;7.850;2024-03-22T04:49:28;8.82;;;5.03;;
32760;SDS011;19126;47.472;7.850;2024-03-22T04:51:54;6.00;;;4.25;;
32760;SDS011;19126;47.472;7.850;2024-03-22T04:54:21;8.02;;;5.10;;
32760;SDS011;19126;47.472;7.850;2024-03-22T04:56:48;5.18;;;4.22;;
32760;SDS011;19126;47.472;7.850;2024-03-22T04:59:17;10.18;;;5.85;;
32760;SDS011;19126;47.472;7.850;2024-03-22T05:01:44;8.73;;;5.30;;
32760;SDS011;19126;47.472;7.850;2024-03-22T05:04:11;8.80;;;4.78;;
32760;SDS011;19126;47.472;7.850;2024-03-22T05:06:37;7.32;;;4.18;;
32760;SDS011;19126;47.472;7.850;2024-03-22T05:09:04;9.23;;;5.10;;
32760;SDS011;19126;47.472;7.850;2024-03-22T05:11:30;6.65;;;5.00;;
32760;SDS011;19126;47.472;7.850;2024-03-22T05:13:57;6.65;;;5.20;;
32760;SDS011;19126;47.472;7.850;2024-03-22T05:16:25;7.85;;;5.03;;
32760;SDS011;19126;47.472;7.850;2024-03-22T05:18:52;14.07;;;6.00;;
32760;SDS011;19126;47.472;7.850;2024-03-22T05:21:18;7.18;;;5.30;;
32760;SDS011;19126;47.472;7.850;2024-03-22T05:23:46;9.95;;;5.90;;
32760;SDS011;19126;47.472;7.850;2024-03-22T05:26:12;9.60;;;6.30;;
32760;SDS011;19126;47.472;7.850;2024-03-22T05:28:39;6.00;;;5.32;;
32760;SDS011;19126;47.472;7.850;2024-03-22T05:31:05;11.15;;;4.78;;
32760;SDS011;19126;47.472;7.850;2024-03-22T05:33:34;6.38;;;5.70;;
32760;SDS011;19126;47.472;7.850;2024-03-22T05:36:00;10.15;;;5.68;;
32760;SDS011;19126;47.472;7.850;2024-03-22T05:38:27;7.40;;;5.22;;
32760;SDS011;19126;47.472;7.850;2024-03-22T05:40:53;9.80;;;5.80;;
32760;SDS011;19126;47.472;7.850;2024-03-22T05:43:20;8.43;;;5.85;;
32760;SDS011;19126;47.472;7.850;2024-03-22T05:45:47;7.93;;;5.28;;
32760;SDS011;19126;47.472;7.850;2024-03-22T05:48:14;11.35;;;7.13;;
32760;SDS011;19126;47.472;7.850;2024-03-22T05:50:43;10.93;;;7.75;;
32760;SDS011;19126;47.472;7.850;2024-03-22T05:53:09;16.20;;;7.57;;
32760;SDS011;19126;47.472;7.850;2024-03-22T05:55:36;8.13;;;6.03;;
32760;SDS011;19126;47.472;7.850;2024-03-22T05:58:03;8.80;;;6.20;;
32760;SDS011;19126;47.472;7.850;2024-03-22T06:00:30;12.80;;;7.60;;
32760;SDS011;19126;47.472;7.850;2024-03-22T06:02:56;10.55;;;8.40;;
32760;SDS011;19126;47.472;7.850;2024-03-22T06:05:24;14.35;;;8.65;;
32760;SDS011;19126;47.472;7.850;2024-03-22T06:07:52;13.30;;;8.63;;
32760;SDS011;19126;47.472;7.850;2024-03-22T06:10:19;13.23;;;7.10;;
32760;SDS011;19126;47.472;7.850;2024-03-22T06:12:45;14.48;;;7.82;;
32760;SDS011;19126;47.472;7.850;2024-03-22T06:15:13;12.60;;;8.55;;
32760;SDS011;19126;47.472;7.850;2024-03-22T06:17:40;9.93;;;7.45;;
32760;SDS011;19126;47.472;7.850;2024-03-22T06:20:08;14.52;;;9.07;;
32760;SDS011;19126;47.472;7.850;2024-03-22T06:22:36;17.92;;;7.63;;
32760;SDS011;19126;47.472;7.850;2024-03-22T06:25:05;13.73;;;7.15;;
32760;SDS011;19126;47.472;7.850;2024-03-22T06:27:32;11.25;;;8.15;;
32760;SDS011;19126;47.472;7.850;2024-03-22T06:29:59;15.38;;;7.53;;
32760;SDS011;19126;47.472;7.850;2024-03-22T06:32:25;15.65;;;7.97;;
32760;SDS011;19126;47.472;7.850;2024-03-22T06:34:52;11.73;;;7.90;;
32760;SDS011;19126;47.472;7.850;2024-03-22T06:37:18;14.63;;;7.30;;
32760;SDS011;19126;47.472;7.850;2024-03-22T06:39:45;9.25;;;6.28;;
32760;SDS011;19126;47.472;7.850;2024-03-22T06:42:13;9.40;;;6.85;;
32760;SDS011;19126;47.472;7.850;2024-03-22T06:44:41;11.40;;;7.13;;
32760;SDS011;19126;47.472;7.850;2024-03-22T06:47:07;12.90;;;6.93;;
32760;SDS011;19126;47.472;7.850;2024-03-22T06:49:34;13.35;;;7.32;;
32760;SDS011;19126;47.472;7.850;2024-03-22T06:52:01;19.13;;;8.48;;
32760;SDS011;19126;47.472;7.850;2024-03-22T06:54:28;14.15;;;7.78;;
32760;SDS011;19126;47.472;7.850;2024-03-22T06:56:54;16.77;;;8.00;;
32760;SDS011;19126;47.472;7.850;2024-03-22T06:59:23;14.10;;;8.23;;
32760;SDS011;19126;47.472;7.850;2024-03-22T07:01:49;13.60;;;9.57;;
32760;SDS011;19126;47.472;7.850;2024-03-22T07:04:16;16.35;;;8.38;;
32760;SDS011;19126;47.472;7.850;2024-03-22T07:06:42;22.52;;;7.25;;
32760;SDS011;19126;47.472;7.850;2024-03-22T07:09:09;17.73;;;7.18;;
32760;SDS011;19126;47.472;7.850;2024-03-22T07:11:36;12.55;;;6.40;;
32760;SDS011;19126;47.472;7.850;2024-03-22T07:14:03;19.23;;;6.38;;
32760;SDS011;19126;47.472;7.850;2024-03-22T07:16:31;12.75;;;6.60;;
32760;SDS011;19126;47.472;7.850;2024-03-22T07:18:58;8.60;;;5.45;;
32760;SDS011;19126;47.472;7.850;2024-03-22T07:21:25;12.35;;;6.43;;
32760;SDS011;19126;47.472;7.850;2024-03-22T07:23:51;11.57;;;6.30;;
32760;SDS011;19126;47.472;7.850;2024-03-22T07:26:19;8.20;;;5.45;;
32760;SDS011;19126;47.472;7.850;2024-03-22T07:28:45;11.18;;;6.00;;
32760;SDS011;19126;47.472;7.850;2024-03-22T07:31:12;14.98;;;5.97;;
32760;SDS011;19126;47.472;7.850;2024-03-22T07:33:40;11.25;;;6.93;;
32760;SDS011;19126;47.472;7.850;2024-03-22T07:36:07;8.93;;;6.53;;
32760;SDS011;19126;47.472;7.850;2024-03-22T07:38:33;14.15;;;6.20;;
32760;SDS011;19126;47.472;7.850;2024-03-22T07:41:01;14.90;;;6.03;;
32760;SDS011;19126;47.472;7.850;2024-03-22T07:43:27;9.23;;;5.93;;
32760;SDS011;19126;47.472;7.850;2024-03-22T07:45:54;10.15;;;5.50;;
32760;SDS011;19126;47.472;7.850;2024-03-22T07:48:20;11.02;;;5.97;;
32760;SDS011;19126;47.472;7.850;2024-03-22T07:50:55;10.77;;;5.28;;
32760;SDS011;19126;47.472;7.850;2024-03-22T07:53:23;19.13;;;5.57;;
32760;SDS011;19126;47.472;7.850;2024-03-22T07:55:50;8.95;;;5.25;;
32760;SDS011;19126;47.472;7.850;2024-03-22T07:58:16;9.23;;;5.50;;
32760;SDS011;19126;47.472;7.850;2024-03-22T08:00:44;10.63;;;5.25;;
32760;SDS011;19126;47.472;7.850;2024-03-22T08:03:13;7.70;;;4.93;;
32760;SDS011;19126;47.472;7.850;2024-03-22T08:05:42;12.43;;;5.40;;
32760;SDS011;19126;47.472;7.850;2024-03-22T08:08:09;9.57;;;5.30;;
32760;SDS011;19126;47.472;7.850;2024-03-22T08:10:36;5.47;;;4.03;;
32760;SDS011;19126;47.472;7.850;2024-03-22T08:13:03;15.02;;;4.85;;
32760;SDS011;19126;47.472;7.850;2024-03-22T08:15:30;9.02;;;5.30;;
32760;SDS011;19126;47.472;7.850;2024-03-22T08:17:56;12.60;;;5.40;;
32760;SDS011;19126;47.472;7.850;2024-03-22T08:20:23;11.38;;;5.30;;
32760;SDS011;19126;47.472;7.850;2024-03-22T08:22:49;10.75;;;4.88;;
32760;SDS011;19126;47.472;7.850;2024-03-22T08:25:18;14.43;;;4.55;;
32760;SDS011;19126;47.472;7.850;2024-03-22T08:27:45;9.20;;;5.30;;
32760;SDS011;19126;47.472;7.850;2024-03-22T08:30:13;12.45;;;5.07;;
32760;SDS011;19126;47.472;7.850;2024-03-22T08:32:40;12.38;;;4.38;;
32760;SDS011;19126;47.472;7.850;2024-03-22T08:35:07;10.82;;;4.28;;
32760;SDS011;19126;47.472;7.850;2024-03-22T08:37:33;13.18;;;4.93;;
32760;SDS011;19126;47.472;7.850;2024-03-22T08:40:01;10.38;;;4.72;;
32760;SDS011;19126;47.472;7.850;2024-03-22T08:42:30;14.20;;;4.32;;
32760;SDS011;19126;47.472;7.850;2024-03-22T08:44:58;12.88;;;4.65;;
32760;SDS011;19126;47.472;7.850;2024-03-22T08:47:25;5.90;;;3.67;;
32760;SDS011;19126;47.472;7.850;2024-03-22T08:49:52;5.70;;;3.50;;
32760;SDS011;19126;47.472;7.850;2024-03-22T08:52:21;10.35;;;4.18;;
32760;SDS011;19126;47.472;7.850;2024-03-22T08:54:49;11.70;;;4.28;;
32760;SDS011;19126;47.472;7.850;2024-03-22T08:57:16;5.57;;;3.40;;
32760;SDS011;19126;47.472;7.850;2024-03-22T08:59:43;6.40;;;3.58;;
32760;SDS011;19126;47.472;7.850;2024-03-22T09:02:11;7.65;;;3.40;;
32760;SDS011;19126;47.472;7.850;2024-03-22T09:04:37;5.50;;;3.80;;
32760;SDS011;19126;47.472;7.850;2024-03-22T09:07:04;7.70;;;3.05;;
32760;SDS011;19126;47.472;7.850;2024-03-22T09:09:30;9.20;;;3.15;;
32760;SDS011;19126;47.472;7.850;2024-03-22T09:11:58;10.10;;;2.60;;
32760;SDS011;19126;47.472;7.850;2024-03-22T09:14:24;4.05;;;2.28;;
32760;SDS011;19126;47.472;7.850;2024-03-22T09:16:53;4.85;;;2.33;;
32760;SDS011;19126;47.472;7.850;2024-03-22T09:19:19;5.95;;;1.90;;
32760;SDS011;19126;47.472;7.850;2024-03-22T09:21:46;5.65;;;2.08;;
32760;SDS011;19126;47.472;7.850;2024-03-22T09:24:12;6.57;;;2.28;;
32760;SDS011;19126;47.472;7.850;2024-03-22T09:26:39;4.60;;;1.52;;
32760;SDS011;19126;47.472;7.850;2024-03-22T09:29:06;6.20;;;1.90;;
32760;SDS011;19126;47.472;7.850;2024-03-22T09:31:33;4.38;;;2.25;;
32760;SDS011;19126;47.472;7.850;2024-03-22T09:34:00;6.60;;;3.42;;
32760;SDS011;19126;47.472;7.850;2024-03-22T09:36:27;4.50;;;1.73;;
32760;SDS011;19126;47.472;7.850;2024-03-22T09:38:56;4.47;;;2.00;;
32760;SDS011;19126;47.472;7.850;2024-03-22T09:41:24;7.97;;;1.98;;
32760;SDS011;19126;47.472;7.850;2024-03-22T09:43:51;2.72;;;1.45;;
32760;SDS011;19126;47.472;7.850;2024-03-22T09:46:19;3.72;;;1.45;;
32760;SDS011;19126;47.472;7.850;2024-03-22T09:48:46;5.05;;;1.80;;
32760;SDS011;19126;47.472;7.850;2024-03-22T09:51:17;4.78;;;1.65;;
32760;SDS011;19126;47.472;7.850;2024-03-22T09:53:44;3.83;;;1.40;;
32760;SDS011;19126;47.472;7.850;2024-03-22T09:56:12;5.10;;;1.50;;
32760;SDS011;19126;47.472;7.850;2024-03-22T09:58:40;9.25;;;1.50;;
32760;SDS011;19126;47.472;7.850;2024-03-22T10:01:08;2.65;;;1.23;;
32760;SDS011;19126;47.472;7.850;2024-03-22T10:03:34;5.10;;;1.52;;
32760;SDS011;19126;47.472;7.850;2024-03-22T10:06:02;3.67;;;1.20;;
32760;SDS011;19126;47.472;7.850;2024-03-22T10:08:31;2.00;;;1.30;;
32760;SDS011;19126;47.472;7.850;2024-03-22T10:11:01;3.60;;;1.45;;
32760;SDS011;19126;47.472;7.850;2024-03-22T10:13:28;7.03;;;1.27;;
32760;SDS011;19126;47.472;7.850;2024-03-22T10:15:56;4.45;;;1.20;;
32760;SDS011;19126;47.472;7.850;2024-03-22T10:18:22;1.33;;;1.17;;
32760;SDS011;19126;47.472;7.850;2024-03-22T10:20:58;3.75;;;1.30;;
32760;SDS011;19126;47.472;7.850;2024-03-22T10:23:26;2.58;;;1.40;;
32760;SDS011;19126;47.472;7.850;2024-03-22T10:25:55;5.45;;;2.20;;
32760;SDS011;19126;47.472;7.850;2024-03-22T10:28:23;4.13;;;1.70;;
32760;SDS011;19126;47.472;7.850;2024-03-22T10:30:50;3.92;;;1.80;;
32760;SDS011;19126;47.472;7.850;2024-03-22T10:33:18;4.53;;;1.58;;
32760;SDS011;19126;47.472;7.850;2024-03-22T10:35:47;3.20;;;1.55;;
32760;SDS011;19126;47.472;7.850;2024-03-22T10:38:17;5.38;;;2.10;;
32760;SDS011;19126;47.472;7.850;2024-03-22T10:40:45;7.55;;;1.73;;
32760;SDS011;19126;47.472;7.850;2024-03-22T10:43:14;3.15;;;1.45;;
32760;SDS011;19126;47.472;7.850;2024-03-22T10:45:42;2.80;;;1.38;;
32760;SDS011;19126;47.472;7.850;2024-03-22T10:48:12;5.87;;;1.70;;
32760;SDS011;19126;47.472;7.850;2024-03-22T10:50:43;4.25;;;1.70;;
32760;SDS011;19126;47.472;7.850;2024-03-22T10:53:11;5.00;;;1.27;;
32760;SDS011;19126;47.472;7.850;2024-03-22T10:55:45;7.93;;;1.33;;
32760;SDS011;19126;47.472;7.850;2024-03-22T10:58:16;5.75;;;1.50;;
32760;SDS011;19126;47.472;7.850;2024-03-22T11:00:44;2.65;;;1.83;;
32760;SDS011;19126;47.472;7.850;2024-03-22T11:03:12;3.70;;;1.42;;
32760;SDS011;19126;47.472;7.850;2024-03-22T11:05:46;3.88;;;1.13;;
32760;SDS011;19126;47.472;7.850;2024-03-22T11:08:22;2.15;;;1.10;;
32760;SDS011;19126;47.472;7.850;2024-03-22T11:10:51;2.35;;;1.63;;
32760;SDS011;19126;47.472;7.850;2024-03-22T11:13:19;3.42;;;1.20;;
32760;SDS011;19126;47.472;7.850;2024-03-22T11:15:47;3.75;;;1.50;;
32760;SDS011;19126;47.472;7.850;2024-03-22T11:18:13;4.47;;;1.33;;
32760;SDS011;19126;47.472;7.850;2024-03-22T11:20:41;1.15;;;1.00;;
32760;SDS011;19126;47.472;7.850;2024-03-22T11:23:08;3.08;;;0.90;;
32760;SDS011;19126;47.472;7.850;2024-03-22T11:25:36;2.67;;;1.00;;
32760;SDS011;19126;47.472;7.850;2024-03-22T11:28:02;5.03;;;1.20;;
32760;SDS011;19126;47.472;7.850;2024-03-22T11:30:32;6.35;;;1.20;;
32760;SDS011;19126;47.472;7.850;2024-03-22T11:33:00;12.52;;;1.50;;
32760;SDS011;19126;47.472;7.850;2024-03-22T11:35:28;5.72;;;1.20;;
32760;SDS011;19126;47.472;7.850;2024-03-22T11:37:54;1.38;;;1.23;;
32760;SDS011;19126;47.472;7.850;2024-03-22T11:40:23;1.65;;;1.13;;
32760;SDS011;19126;47.472;7.850;2024-03-22T11:42:51;2.60;;;1.10;;
32760;SDS011;19126;47.472;7.850;2024-03-22T11:45:20;3.97;;;1.23;;
32760;SDS011;19126;47.472;7.850;2024-03-22T11:47:49;3.45;;;1.00;;
32760;SDS011;19126;47.472;7.850;2024-03-22T11:50:16;3.20;;;0.90;;
32760;SDS011;19126;47.472;7.850;2024-03-22T11:52:43;2.33;;;1.10;;
32760;SDS011;19126;47.472;7.850;2024-03-22T11:55:12;1.92;;;0.95;;
32760;SDS011;19126;47.472;7.850;2024-03-22T11:57:39;5.20;;;1.20;;
32760;SDS011;19126;47.472;7.850;2024-03-22T12:00:07;1.83;;;1.05;;
32760;SDS011;19126;47.472;7.850;2024-03-22T12:02:35;2.10;;;0.90;;
32760;SDS011;19126;47.472;7.850;2024-03-22T12:05:04;6.03;;;1.10;;
32760;SDS011;19126;47.472;7.850;2024-03-22T12:07:31;3.10;;;1.63;;
32760;SDS011;19126;47.472;7.850;2024-03-22T12:09:59;2.60;;;0.90;;
32760;SDS011;19126;47.472;7.850;2024-03-22T12:12:25;3.47;;;0.90;;
32760;SDS011;19126;47.472;7.850;2024-03-22T12:14:52;3.28;;;0.90;;
32760;SDS011;19126;47.472;7.850;2024-03-22T12:17:19;5.75;;;1.02;;
32760;SDS011;19126;47.472;7.850;2024-03-22T12:19:46;3.45;;;0.80;;
32760;SDS011;19126;47.472;7.850;2024-03-22T12:22:13;1.98;;;0.75;;
32760;SDS011;19126;47.472;7.850;2024-03-22T12:24:41;2.03;;;0.90;;
32760;SDS011;19126;47.472;7.850;2024-03-22T12:27:07;1.85;;;0.90;;
32760;SDS011;19126;47.472;7.850;2024-03-22T12:29:34;2.25;;;0.90;;
32760;SDS011;19126;47.472;7.850;2024-03-22T12:32:01;5.75;;;0.90;;
32760;SDS011;19126;47.472;7.850;2024-03-22T12:34:29;3.88;;;1.00;;
32760;SDS011;19126;47.472;7.850;2024-03-22T12:36:57;3.25;;;0.77;;
32760;SDS011;19126;47.472;7.850;2024-03-22T12:39:26;2.22;;;1.00;;
32760;SDS011;19126;47.472;7.850;2024-03-22T12:41:52;2.72;;;0.82;;
32760;SDS011;19126;47.472;7.850;2024-03-22T12:44:20;4.57;;;1.38;;
32760;SDS011;19126;47.472;7.850;2024-03-22T12:46:46;0.80;;;0.80;;
32760;SDS011;19126;47.472;7.850;2024-03-22T12:49:14;2.58;;;0.98;;
32760;SDS011;19126;47.472;7.850;2024-03-22T12:51:40;1.35;;;0.90;;
32760;SDS011;19126;47.472;7.850;2024-03-22T12:54:07;6.63;;;0.80;;
32760;SDS011;19126;47.472;7.850;2024-03-22T12:56:36;1.73;;;0.85;;
32760;SDS011;19126;47.472;7.850;2024-03-22T12:59:04;1.85;;;0.98;;
32760;SDS011;19126;47.472;7.850;2024-03-22T13:01:30;2.13;;;0.98;;
32760;SDS011;19126;47.472;7.850;2024-03-22T13:03:58;1.38;;;0.70;;
32760;SDS011;19126;47.472;7.850;2024-03-22T13:06:24;5.03;;;0.93;;
32760;SDS011;19126;47.472;7.850;2024-03-22T13:08:51;4.00;;;1.05;;
32760;SDS011;19126;47.472;7.850;2024-03-22T13:11:17;2.65;;;1.08;;
32760;SDS011;19126;47.472;7.850;2024-03-22T13:13:46;1.27;;;1.00;;
32760;SDS011;19126;47.472;7.850;2024-03-22T13:16:12;2.85;;;1.13;;
32760;SDS011;19126;47.472;7.850;2024-03-22T13:18:39;5.18;;;1.50;;
32760;SDS011;19126;47.472;7.850;2024-03-22T13:21:07;5.03;;;1.20;;
32760;SDS011;19126;47.472;7.850;2024-03-22T13:23:34;1.38;;;1.05;;
32760;SDS011;19126;47.472;7.850;2024-03-22T13:26:02;6.97;;;1.20;;
32760;SDS011;19126;47.472;7.850;2024-03-22T13:28:31;1.40;;;1.02;;
32760;SDS011;19126;47.472;7.850;2024-03-22T13:31:02;2.72;;;1.13;;
32760;SDS011;19126;47.472;7.850;2024-03-22T13:33:32;2.80;;;1.30;;
32760;SDS011;19126;47.472;7.850;2024-03-22T13:35:59;4.78;;;1.13;;
32760;SDS011;19126;47.472;7.850;2024-03-22T13:38:26;2.03;;;1.27;;
32760;SDS011;19126;47.472;7.850;2024-03-22T13:40:53;3.28;;;1.00;;
32760;SDS011;19126;47.472;7.850;2024-03-22T13:43:21;3.53;;;1.15;;
32760;SDS011;19126;47.472;7.850;2024-03-22T13:45:48;1.40;;;1.10;;
32760;SDS011;19126;47.472;7.850;2024-03-22T13:48:20;3.30;;;1.25;;
32760;SDS011;19126;47.472;7.850;2024-03-22T13:50:49;5.00;;;1.25;;
32760;SDS011;19126;47.472;7.850;2024-03-22T13:53:17;7.00;;;1.52;;
32760;SDS011;19126;47.472;7.850;2024-03-22T13:55:43;4.75;;;1.35;;
32760;SDS011;19126;47.472;7.850;2024-03-22T13:58:11;3.53;;;1.20;;
32760;SDS011;19126;47.472;7.850;2024-03-22T14:00:37;5.47;;;2.70;;
32760;SDS011;19126;47.472;7.850;2024-03-22T14:03:05;9.75;;;4.38;;
32760;SDS011;19126;47.472;7.850;2024-03-22T14:05:32;5.20;;;1.80;;
32760;SDS011;19126;47.472;7.850;2024-03-22T14:08:00;3.78;;;1.30;;
32760;SDS011;19126;47.472;7.850;2024-03-22T14:10:26;5.72;;;1.50;;
32760;SDS011;19126;47.472;7.850;2024-03-22T14:12:56;6.10;;;2.20;;
32760;SDS011;19126;47.472;7.850;2024-03-22T14:15:22;5.72;;;2.00;;
32760;SDS011;19126;47.472;7.850;2024-03-22T14:17:51;3.13;;;1.48;;
32760;SDS011;19126;47.472;7.850;2024-03-22T14:20:17;3.95;;;1.30;;
32760;SDS011;19126;47.472;7.850;2024-03-22T14:22:46;2.53;;;1.30;;
32760;SDS011;19126;47.472;7.850;2024-03-22T14:25:13;4.55;;;1.13;;
32760;SDS011;19126;47.472;7.850;2024-03-22T14:27:40;2.40;;;1.10;;
32760;SDS011;19126;47.472;7.850;2024-03-22T14:30:10;6.82;;;1.20;;
32760;SDS011;19126;47.472;7.850;2024-03-22T14:32:39;4.70;;;1.58;;
32760;SDS011;19126;47.472;7.850;2024-03-22T14:35:06;3.33;;;1.20;;
32760;SDS011;19126;47.472;7.850;2024-03-22T14:37:35;4.13;;;1.20;;
32760;SDS011;19126;47.472;7.850;2024-03-22T14:40:03;5.40;;;1.45;;
32760;SDS011;19126;47.472;7.850;2024-03-22T14:42:35;3.88;;;1.33;;
32760;SDS011;19126;47.472;7.850;2024-03-22T14:45:02;2.13;;;1.20;;
32760;SDS011;19126;47.472;7.850;2024-03-22T14:47:30;2.55;;;1.23;;